sensor_id;sensor_type;location;lat;lon;timestamp;pressure;altitude;pressure_sealevel;temperature
42673;BMP280;28284;46.514;30.724;2023-04-23T00:01:50;100800.03;;;12.31
42673;BMP280;28284;46.514;30.724;2023-04-23T00:04:16;100803.16;;;12.30
42673;BMP280;28284;46.514;30.724;2023-04-23T00:06:42;100800.41;;;12.26
42673;BMP280;28284;46.514;30.724;2023-04-23T00:09:07;100793.81;;;12.24
42673;BMP280;28284;46.514;30.724;2023-04-23T00:11:33;100791.47;;;12.22
42673;BMP280;28284;46.514;30.724;2023-04-23T00:13:59;100795.34;;;12.21
42673;BMP280;28284;46.514;30.724;2023-04-23T00:16:24;100798.81;;;12.18
42673;BMP280;28284;46.514;30.724;2023-04-23T00:18:50;100799.16;;;12.17
42673;BMP280;28284;46.514;30.724;2023-04-23T00:21:15;100802.31;;;12.15
42673;BMP280;28284;46.514;30.724;2023-04-23T00:23:40;100792.19;;;12.12
42673;BMP280;28284;46.514;30.724;2023-04-23T00:26:05;100797.97;;;12.11
42673;BMP280;28284;46.514;30.724;2023-04-23T00:28:31;100797.59;;;12.09
42673;BMP280;28284;46.514;30.724;2023-04-23T00:30:56;100794.47;;;12.07
42673;BMP280;28284;46.514;30.724;2023-04-23T00:33:21;100790.94;;;12.03
42673;BMP280;28284;46.514;30.724;2023-04-23T00:35:47;100787.44;;;11.99
42673;BMP280;28284;46.514;30.724;2023-04-23T00:38:12;100791.28;;;11.94
42673;BMP280;28284;46.514;30.724;2023-04-23T00:40:38;100790.13;;;11.92
42673;BMP280;28284;46.514;30.724;2023-04-23T00:43:03;100790.47;;;11.87
42673;BMP280;28284;46.514;30.724;2023-04-23T00:45:29;100789.63;;;11.83
42673;BMP280;28284;46.514;30.724;2023-04-23T00:47:54;100788.84;;;11.79
42673;BMP280;28284;46.514;30.724;2023-04-23T00:50:20;100785.72;;;11.77
42673;BMP280;28284;46.514;30.724;2023-04-23T00:52:45;100784.94;;;11.73
42673;BMP280;28284;46.514;30.724;2023-04-23T00:55:10;100781.03;;;11.70
42673;BMP280;28284;46.514;30.724;2023-04-23T00:57:36;100780.25;;;11.66
42673;BMP280;28284;46.514;30.724;2023-04-23T01:00:02;100775.13;;;11.61
42673;BMP280;28284;46.514;30.724;2023-04-23T01:02:28;100772.44;;;11.58
42673;BMP280;28284;46.514;30.724;2023-04-23T01:04:54;100771.59;;;11.54
42673;BMP280;28284;46.514;30.724;2023-04-23T01:07:20;100773.88;;;11.49
42673;BMP280;28284;46.514;30.724;2023-04-23T01:09:45;100773.84;;;11.45
42673;BMP280;28284;46.514;30.724;2023-04-23T01:12:11;100770.31;;;11.41
42673;BMP280;28284;46.514;30.724;2023-04-23T01:14:37;100770.31;;;11.41
42673;BMP280;28284;46.514;30.724;2023-04-23T01:17:03;100766.44;;;11.39
42673;BMP280;28284;46.514;30.724;2023-04-23T01:19:28;100772.22;;;11.37
42673;BMP280;28284;46.514;30.724;2023-04-23T01:21:54;100769.09;;;11.35
42673;BMP280;28284;46.514;30.724;2023-04-23T01:24:19;100763.28;;;11.30
42673;BMP280;28284;46.514;30.724;2023-04-23T01:26:45;100769.47;;;11.30
42673;BMP280;28284;46.514;30.724;2023-04-23T01:29:10;100767.91;;;11.29
42673;BMP280;28284;46.514;30.724;2023-04-23T01:31:37;100770.97;;;11.24
42673;BMP280;28284;46.514;30.724;2023-04-23T01:34:02;100772.13;;;11.23
42673;BMP280;28284;46.514;30.724;2023-04-23T01:36:27;100767.78;;;11.19
42673;BMP280;28284;46.514;30.724;2023-04-23T01:38:53;100767.38;;;11.17
42673;BMP280;28284;46.514;30.724;2023-04-23T01:41:19;100757.31;;;11.17
42673;BMP280;28284;46.514;30.724;2023-04-23T01:43:44;100756.19;;;11.18
42673;BMP280;28284;46.514;30.724;2023-04-23T01:46:10;100752.66;;;11.18
42673;BMP280;28284;46.514;30.724;2023-04-23T01:48:35;100752.31;;;11.19
42673;BMP280;28284;46.514;30.724;2023-04-23T01:51:01;100755.03;;;11.19
42673;BMP280;28284;46.514;30.724;2023-04-23T01:53:26;100755.78;;;11.16
42673;BMP280;28284;46.514;30.724;2023-04-23T01:55:51;100755.00;;;11.16
42673;BMP280;28284;46.514;30.724;2023-04-23T01:58:18;100753.03;;;11.13
42673;BMP280;28284;46.514;30.724;2023-04-23T02:00:43;100754.13;;;11.08
42673;BMP280;28284;46.514;30.724;2023-04-23T02:03:08;100752.97;;;11.06
42673;BMP280;28284;46.514;30.724;2023-04-23T02:05:34;100756.78;;;11.01
42673;BMP280;28284;46.514;30.724;2023-04-23T02:07:59;100755.19;;;10.97
42673;BMP280;28284;46.514;30.724;2023-04-23T02:10:25;100758.22;;;10.92
42673;BMP280;28284;46.514;30.724;2023-04-23T02:12:50;100755.47;;;10.88
42673;BMP280;28284;46.514;30.724;2023-04-23T02:15:15;100748.88;;;10.86
42673;BMP280;28284;46.514;30.724;2023-04-23T02:17:41;100755.81;;;10.83
42673;BMP280;28284;46.514;30.724;2023-04-23T02:20:07;100755.03;;;10.83
42673;BMP280;28284;46.514;30.724;2023-04-23T02:22:33;100754.97;;;10.79
42673;BMP280;28284;46.514;30.724;2023-04-23T02:25:00;100754.19;;;10.79
42673;BMP280;28284;46.514;30.724;2023-04-23T02:27:26;100758.47;;;10.80
42673;BMP280;28284;46.514;30.724;2023-04-23T02:29:51;100760.41;;;10.79
42673;BMP280;28284;46.514;30.724;2023-04-23T02:32:17;100766.56;;;10.76
42673;BMP280;28284;46.514;30.724;2023-04-23T02:34:42;100767.28;;;10.73
42673;BMP280;28284;46.514;30.724;2023-04-23T02:37:08;100769.56;;;10.71
42673;BMP280;28284;46.514;30.724;2023-04-23T02:39:33;100764.56;;;10.70
42673;BMP280;28284;46.514;30.724;2023-04-23T02:41:58;100767.63;;;10.69
42673;BMP280;28284;46.514;30.724;2023-04-23T02:44:24;100774.59;;;10.70
42673;BMP280;28284;46.514;30.724;2023-04-23T02:46:52;100779.25;;;10.72
42673;BMP280;28284;46.514;30.724;2023-04-23T02:49:18;100782.75;;;10.73
42673;BMP280;28284;46.514;30.724;2023-04-23T02:51:45;100787.44;;;10.76
42673;BMP280;28284;46.514;30.724;2023-04-23T02:54:11;100776.66;;;10.79
42673;BMP280;28284;46.514;30.724;2023-04-23T02:56:36;100773.22;;;10.82
42673;BMP280;28284;46.514;30.724;2023-04-23T02:59:02;100776.75;;;10.86
42673;BMP280;28284;46.514;30.724;2023-04-23T03:01:27;100771.03;;;10.95
42673;BMP280;28284;46.514;30.724;2023-04-23T03:03:52;100773.84;;;11.05
42673;BMP280;28284;46.514;30.724;2023-04-23T03:06:18;100770.50;;;11.19
42673;BMP280;28284;46.514;30.724;2023-04-23T03:08:43;100798.56;;;11.40
42673;BMP280;28284;46.514;30.724;2023-04-23T03:11:08;100791.03;;;11.59
42673;BMP280;28284;46.514;30.724;2023-04-23T03:13:34;100789.63;;;11.79
42673;BMP280;28284;46.514;30.724;2023-04-23T03:15:59;100795.13;;;11.90
42673;BMP280;28284;46.514;30.724;2023-04-23T03:18:24;100799.53;;;12.08
42673;BMP280;28284;46.514;30.724;2023-04-23T03:20:50;100815.63;;;12.44
42673;BMP280;28284;46.514;30.724;2023-04-23T03:23:15;100811.50;;;12.71
42673;BMP280;28284;46.514;30.724;2023-04-23T03:25:40;100816.56;;;12.83
42673;BMP280;28284;46.514;30.724;2023-04-23T03:28:06;100832.50;;;12.81
42673;BMP280;28284;46.514;30.724;2023-04-23T03:30:31;100826.69;;;12.76
42673;BMP280;28284;46.514;30.724;2023-04-23T03:32:56;100832.06;;;12.72
42673;BMP280;28284;46.514;30.724;2023-04-23T03:35:22;100834.78;;;12.69
42673;BMP280;28284;46.514;30.724;2023-04-23T03:37:48;100833.97;;;12.65
42673;BMP280;28284;46.514;30.724;2023-04-23T03:40:13;100849.88;;;12.59
42673;BMP280;28284;46.514;30.724;2023-04-23T03:42:38;100839.78;;;12.56
42673;BMP280;28284;46.514;30.724;2023-04-23T03:45:04;100838.59;;;12.57
42673;BMP280;28284;46.514;30.724;2023-04-23T03:47:29;100842.91;;;12.65
42673;BMP280;28284;46.514;30.724;2023-04-23T03:49:55;100853.06;;;12.75
42673;BMP280;28284;46.514;30.724;2023-04-23T03:52:21;100862.03;;;12.90
42673;BMP280;28284;46.514;30.724;2023-04-23T03:54:46;100858.56;;;13.00
42673;BMP280;28284;46.514;30.724;2023-04-23T03:57:11;100863.25;;;13.06
42673;BMP280;28284;46.514;30.724;2023-04-23T03:59:37;100859.41;;;13.14
42673;BMP280;28284;46.514;30.724;2023-04-23T04:02:02;100855.50;;;13.15
42673;BMP280;28284;46.514;30.724;2023-04-23T04:04:30;100859.06;;;13.36
42673;BMP280;28284;46.514;30.724;2023-04-23T04:06:56;100871.13;;;13.53
42673;BMP280;28284;46.514;30.724;2023-04-23T04:09:21;100866.06;;;13.58
42673;BMP280;28284;46.514;30.724;2023-04-23T04:11:47;100866.47;;;13.64
42673;BMP280;28284;46.514;30.724;2023-04-23T04:14:12;100878.53;;;13.80
42673;BMP280;28284;46.514;30.724;2023-04-23T04:16:38;100874.25;;;13.96
42673;BMP280;28284;46.514;30.724;2023-04-23T04:19:03;100875.78;;;14.15
42673;BMP280;28284;46.514;30.724;2023-04-23T04:21:28;100883.13;;;14.35
42673;BMP280;28284;46.514;30.724;2023-04-23T04:23:54;100878.41;;;14.53
42673;BMP280;28284;46.514;30.724;2023-04-23T04:26:19;100880.66;;;14.75
42673;BMP280;28284;46.514;30.724;2023-04-23T04:28:45;100893.34;;;15.71
42673;BMP280;28284;46.514;30.724;2023-04-23T04:31:11;100897.09;;;16.90
42673;BMP280;28284;46.514;30.724;2023-04-23T04:33:38;100911.94;;;18.14
42673;BMP280;28284;46.514;30.724;2023-04-23T04:36:03;100908.84;;;18.70
42673;BMP280;28284;46.514;30.724;2023-04-23T04:38:29;100928.84;;;18.51
42673;BMP280;28284;46.514;30.724;2023-04-23T04:40:54;100921.13;;;18.04
42673;BMP280;28284;46.514;30.724;2023-04-23T04:43:22;100924.13;;;17.67
42673;BMP280;28284;46.514;30.724;2023-04-23T04:45:48;100915.34;;;17.53
42673;BMP280;28284;46.514;30.724;2023-04-23T04:48:13;100915.25;;;17.37
42673;BMP280;28284;46.514;30.724;2023-04-23T04:50:38;100925.03;;;17.35
42673;BMP280;28284;46.514;30.724;2023-04-23T04:53:04;100929.41;;;17.32
42673;BMP280;28284;46.514;30.724;2023-04-23T04:55:29;100926.22;;;17.34
42673;BMP280;28284;46.514;30.724;2023-04-23T04:57:55;100933.25;;;17.35
42673;BMP280;28284;46.514;30.724;2023-04-23T05:02:50;100929.50;;;17.51
42673;BMP280;28284;46.514;30.724;2023-04-23T05:05:16;100931.31;;;17.58
42673;BMP280;28284;46.514;30.724;2023-04-23T05:07:41;100929.19;;;17.69
42673;BMP280;28284;46.514;30.724;2023-04-23T05:10:07;100930.94;;;17.82
42673;BMP280;28284;46.514;30.724;2023-04-23T05:12:32;100933.81;;;17.95
42673;BMP280;28284;46.514;30.724;2023-04-23T05:14:57;100939.97;;;18.02
42673;BMP280;28284;46.514;30.724;2023-04-23T05:17:23;100944.81;;;18.14
42673;BMP280;28284;46.514;30.724;2023-04-23T05:19:48;100947.25;;;18.31
42673;BMP280;28284;46.514;30.724;2023-04-23T05:22:13;100948.53;;;18.46
42673;BMP280;28284;46.514;30.724;2023-04-23T05:24:39;100952.13;;;18.63
42673;BMP280;28284;46.514;30.724;2023-04-23T05:27:04;100945.25;;;18.74
42673;BMP280;28284;46.514;30.724;2023-04-23T05:29:30;100952.72;;;18.89
42673;BMP280;28284;46.514;30.724;2023-04-23T05:31:55;100943.88;;;18.82
42673;BMP280;28284;46.514;30.724;2023-04-23T05:34:20;100952.13;;;18.82
42673;BMP280;28284;46.514;30.724;2023-04-23T05:36:45;100960.63;;;18.87
42673;BMP280;28284;46.514;30.724;2023-04-23T05:39:11;100958.50;;;18.95
42673;BMP280;28284;46.514;30.724;2023-04-23T05:41:36;100968.75;;;19.10
42673;BMP280;28284;46.514;30.724;2023-04-23T05:44:01;100969.72;;;19.20
42673;BMP280;28284;46.514;30.724;2023-04-23T05:46:27;100967.00;;;19.36
42673;BMP280;28284;46.514;30.724;2023-04-23T05:48:52;100969.41;;;19.49
42673;BMP280;28284;46.514;30.724;2023-04-23T05:51:17;100970.13;;;19.53
42673;BMP280;28284;46.514;30.724;2023-04-23T05:53:43;100980.25;;;19.56
42673;BMP280;28284;46.514;30.724;2023-04-23T05:56:08;100977.66;;;19.49
42673;BMP280;28284;46.514;30.724;2023-04-23T05:58:33;100971.97;;;19.40
42673;BMP280;28284;46.514;30.724;2023-04-23T06:00:59;100974.38;;;19.38
42673;BMP280;28284;46.514;30.724;2023-04-23T06:03:24;100975.41;;;19.44
42673;BMP280;28284;46.514;30.724;2023-04-23T06:05:50;100981.44;;;19.55
42673;BMP280;28284;46.514;30.724;2023-04-23T06:08:15;100974.84;;;19.69
42673;BMP280;28284;46.514;30.724;2023-04-23T06:10:41;100982.97;;;19.72
42673;BMP280;28284;46.514;30.724;2023-04-23T06:13:06;100986.59;;;19.69
42673;BMP280;28284;46.514;30.724;2023-04-23T06:15:31;100981.22;;;19.66
42673;BMP280;28284;46.514;30.724;2023-04-23T06:17:57;100981.88;;;19.70
42673;BMP280;28284;46.514;30.724;2023-04-23T06:20:22;100981.22;;;19.66
42673;BMP280;28284;46.514;30.724;2023-04-23T06:22:48;100988.50;;;19.56
42673;BMP280;28284;46.514;30.724;2023-04-23T06:25:13;100984.50;;;19.41
42673;BMP280;28284;46.514;30.724;2023-04-23T06:27:38;100984.16;;;19.39
42673;BMP280;28284;46.514;30.724;2023-04-23T06:30:04;100991.13;;;19.60
42673;BMP280;28284;46.514;30.724;2023-04-23T06:32:29;100988.75;;;19.78
42673;BMP280;28284;46.514;30.724;2023-04-23T06:34:54;100994.63;;;20.08
42673;BMP280;28284;46.514;30.724;2023-04-23T06:37:20;100995.03;;;20.22
42673;BMP280;28284;46.514;30.724;2023-04-23T06:39:45;100998.72;;;20.32
42673;BMP280;28284;46.514;30.724;2023-04-23T06:42:11;101001.13;;;20.30
42673;BMP280;28284;46.514;30.724;2023-04-23T06:44:36;101005.31;;;20.34
42673;BMP280;28284;46.514;30.724;2023-04-23T06:47:01;101003.16;;;20.42
42673;BMP280;28284;46.514;30.724;2023-04-23T06:49:27;101009.00;;;20.44
42673;BMP280;28284;46.514;30.724;2023-04-23T06:51:52;101017.22;;;20.60
42673;BMP280;28284;46.514;30.724;2023-04-23T06:54:17;101022.22;;;20.77
42673;BMP280;28284;46.514;30.724;2023-04-23T06:56:43;101022.22;;;20.89
42673;BMP280;28284;46.514;30.724;2023-04-23T06:59:08;101020.91;;;20.94
42673;BMP280;28284;46.514;30.724;2023-04-23T07:01:33;101022.59;;;21.04
42673;BMP280;28284;46.514;30.724;2023-04-23T07:03:58;101031.66;;;21.29
42673;BMP280;28284;46.514;30.724;2023-04-23T07:06:25;101029.19;;;21.43
42673;BMP280;28284;46.514;30.724;2023-04-23T07:08:51;101030.53;;;21.64
42673;BMP280;28284;46.514;30.724;2023-04-23T07:11:17;101034.31;;;21.70
42673;BMP280;28284;46.514;30.724;2023-04-23T07:13:42;101035.47;;;21.81
42673;BMP280;28284;46.514;30.724;2023-04-23T07:16:07;101032.56;;;21.97
42673;BMP280;28284;46.514;30.724;2023-04-23T07:18:33;101038.25;;;22.15
42673;BMP280;28284;46.514;30.724;2023-04-23T07:20:58;101049.59;;;22.17
42673;BMP280;28284;46.514;30.724;2023-04-23T07:23:23;101043.22;;;22.20
42673;BMP280;28284;46.514;30.724;2023-04-23T07:25:49;101046.31;;;22.22
42673;BMP280;28284;46.514;30.724;2023-04-23T07:28:14;101047.13;;;22.31
42673;BMP280;28284;46.514;30.724;2023-04-23T07:30:39;101050.91;;;22.37
42673;BMP280;28284;46.514;30.724;2023-04-23T07:33:05;101051.00;;;22.34
42673;BMP280;28284;46.514;30.724;2023-04-23T07:35:30;101053.13;;;22.30
42673;BMP280;28284;46.514;30.724;2023-04-23T07:37:55;101055.00;;;22.20
42673;BMP280;28284;46.514;30.724;2023-04-23T07:40:22;101049.75;;;22.13
42673;BMP280;28284;46.514;30.724;2023-04-23T07:42:47;101050.97;;;22.12
42673;BMP280;28284;46.514;30.724;2023-04-23T07:45:13;101051.41;;;22.11
42673;BMP280;28284;46.514;30.724;2023-04-23T07:47:39;101049.84;;;22.22
42673;BMP280;28284;46.514;30.724;2023-04-23T07:50:05;101053.69;;;22.25
42673;BMP280;28284;46.514;30.724;2023-04-23T07:52:30;101054.00;;;22.27
42673;BMP280;28284;46.514;30.724;2023-04-23T07:54:55;101055.50;;;22.19
42673;BMP280;28284;46.514;30.724;2023-04-23T07:57:21;101058.03;;;22.13
42673;BMP280;28284;46.514;30.724;2023-04-23T07:59:46;101056.72;;;22.05
42673;BMP280;28284;46.514;30.724;2023-04-23T08:02:11;101056.06;;;22.01
42673;BMP280;28284;46.514;30.724;2023-04-23T08:04:37;101069.63;;;22.08
42673;BMP280;28284;46.514;30.724;2023-04-23T08:07:02;101064.28;;;22.14
42673;BMP280;28284;46.514;30.724;2023-04-23T08:09:27;101060.31;;;22.15
42673;BMP280;28284;46.514;30.724;2023-04-23T08:11:52;101060.28;;;22.27
42673;BMP280;28284;46.514;30.724;2023-04-23T08:14:19;101063.75;;;22.19
42673;BMP280;28284;46.514;30.724;2023-04-23T08:16:44;101069.47;;;22.12
42673;BMP280;28284;46.514;30.724;2023-04-23T08:19:09;101051.41;;;21.98
42673;BMP280;28284;46.514;30.724;2023-04-23T08:21:35;101061.28;;;21.87
42673;BMP280;28284;46.514;30.724;2023-04-23T08:24:01;101056.78;;;21.80
42673;BMP280;28284;46.514;30.724;2023-04-23T08:26:30;101048.81;;;21.82
42673;BMP280;28284;46.514;30.724;2023-04-23T08:28:56;101054.66;;;21.84
42673;BMP280;28284;46.514;30.724;2023-04-23T08:31:21;101051.69;;;21.79
42673;BMP280;28284;46.514;30.724;2023-04-23T08:33:46;101045.84;;;21.77
42673;BMP280;28284;46.514;30.724;2023-04-23T08:36:12;101050.66;;;21.85
42673;BMP280;28284;46.514;30.724;2023-04-23T08:38:39;101049.03;;;22.00
42673;BMP280;28284;46.514;30.724;2023-04-23T08:41:05;101040.50;;;22.07
42673;BMP280;28284;46.514;30.724;2023-04-23T08:43:31;101052.88;;;22.03
42673;BMP280;28284;46.514;30.724;2023-04-23T08:45:59;101058.94;;;21.98
42673;BMP280;28284;46.514;30.724;2023-04-23T08:48:26;101049.03;;;22.00
42673;BMP280;28284;46.514;30.724;2023-04-23T08:50:52;101051.41;;;22.11
42673;BMP280;28284;46.514;30.724;2023-04-23T08:53:18;101058.91;;;22.10
42673;BMP280;28284;46.514;30.724;2023-04-23T08:55:43;101047.53;;;22.08
42673;BMP280;28284;46.514;30.724;2023-04-23T08:58:09;101040.28;;;22.02
42673;BMP280;28284;46.514;30.724;2023-04-23T09:00:35;101050.78;;;21.94
42673;BMP280;28284;46.514;30.724;2023-04-23T09:03:00;101054.88;;;21.90
42673;BMP280;28284;46.514;30.724;2023-04-23T09:05:26;101052.16;;;21.78
42673;BMP280;28284;46.514;30.724;2023-04-23T09:07:52;101053.13;;;21.59
42673;BMP280;28284;46.514;30.724;2023-04-23T09:10:18;101037.41;;;21.47
42673;BMP280;28284;46.514;30.724;2023-04-23T09:12:43;101051.84;;;21.51
42673;BMP280;28284;46.514;30.724;2023-04-23T09:15:09;101047.53;;;21.50
42673;BMP280;28284;46.514;30.724;2023-04-23T09:17:35;101040.59;;;21.45
42673;BMP280;28284;46.514;30.724;2023-04-23T09:20:02;101051.94;;;21.35
42673;BMP280;28284;46.514;30.724;2023-04-23T09:22:46;101047.00;;;21.30
42673;BMP280;28284;46.514;30.724;2023-04-23T09:25:12;101038.25;;;21.19
42673;BMP280;28284;46.514;30.724;2023-04-23T09:27:38;101042.94;;;20.94
42673;BMP280;28284;46.514;30.724;2023-04-23T09:30:04;101045.13;;;20.74
42673;BMP280;28284;46.514;30.724;2023-04-23T09:32:35;101030.09;;;20.62
42673;BMP280;28284;46.514;30.724;2023-04-23T09:35:04;101020.78;;;20.72
42673;BMP280;28284;46.514;30.724;2023-04-23T09:37:30;101035.56;;;20.91
42673;BMP280;28284;46.514;30.724;2023-04-23T09:40:03;101036.69;;;20.93
42673;BMP280;28284;46.514;30.724;2023-04-23T09:42:30;101018.13;;;20.81
42673;BMP280;28284;46.514;30.724;2023-04-23T09:44:58;101015.94;;;20.76
42673;BMP280;28284;46.514;30.724;2023-04-23T09:47:24;101014.59;;;20.68
42673;BMP280;28284;46.514;30.724;2023-04-23T09:49:49;101032.84;;;20.62
42673;BMP280;28284;46.514;30.724;2023-04-23T09:52:15;101032.47;;;20.48
42673;BMP280;28284;46.514;30.724;2023-04-23T09:54:41;101028.78;;;20.39
42673;BMP280;28284;46.514;30.724;2023-04-23T09:57:06;101025.53;;;20.12
42673;BMP280;28284;46.514;30.724;2023-04-23T09:59:33;101024.06;;;19.95
42673;BMP280;28284;46.514;30.724;2023-04-23T10:02:04;101021.75;;;19.78
42673;BMP280;28284;46.514;30.724;2023-04-23T10:04:30;101021.88;;;19.71
42673;BMP280;28284;46.514;30.724;2023-04-23T10:06:59;101027.63;;;19.60
42673;BMP280;28284;46.514;30.724;2023-04-23T10:09:25;101025.69;;;19.41
42673;BMP280;28284;46.514;30.724;2023-04-23T10:11:56;101019.28;;;19.32
42673;BMP280;28284;46.514;30.724;2023-04-23T10:14:22;101010.56;;;19.18
42673;BMP280;28284;46.514;30.724;2023-04-23T10:16:49;101021.34;;;19.09
42673;BMP280;28284;46.514;30.724;2023-04-23T10:19:16;101006.22;;;19.01
42673;BMP280;28284;46.514;30.724;2023-04-23T10:21:41;101005.59;;;18.93
42673;BMP280;28284;46.514;30.724;2023-04-23T10:24:08;101006.22;;;18.81
42673;BMP280;28284;46.514;30.724;2023-04-23T10:26:35;101015.44;;;18.72
42673;BMP280;28284;46.514;30.724;2023-04-23T10:29:02;101011.19;;;18.67
42673;BMP280;28284;46.514;30.724;2023-04-23T10:31:28;101018.50;;;18.58
42673;BMP280;28284;46.514;30.724;2023-04-23T10:33:58;101004.47;;;18.52
42673;BMP280;28284;46.514;30.724;2023-04-23T10:36:26;101010.00;;;18.49
42673;BMP280;28284;46.514;30.724;2023-04-23T10:38:52;101005.34;;;18.46
42673;BMP280;28284;46.514;30.724;2023-04-23T10:41:20;100988.50;;;18.47
42673;BMP280;28284;46.514;30.724;2023-04-23T10:43:47;100994.69;;;18.51
42673;BMP280;28284;46.514;30.724;2023-04-23T10:46:31;100982.06;;;18.54
42673;BMP280;28284;46.514;30.724;2023-04-23T10:51:34;100984.97;;;18.66
42673;BMP280;28284;46.514;30.724;2023-04-23T10:54:01;100983.38;;;18.69
42673;BMP280;28284;46.514;30.724;2023-04-23T10:56:26;100988.75;;;18.72
42673;BMP280;28284;46.514;30.724;2023-04-23T10:58:52;100985.69;;;18.70
42673;BMP280;28284;46.514;30.724;2023-04-23T11:01:17;100985.25;;;18.72
42673;BMP280;28284;46.514;30.724;2023-04-23T11:03:44;100985.22;;;18.75
42673;BMP280;28284;46.514;30.724;2023-04-23T11:06:12;100979.72;;;18.75
42673;BMP280;28284;46.514;30.724;2023-04-23T11:08:46;100988.34;;;18.73
42673;BMP280;28284;46.514;30.724;2023-04-23T11:11:15;100987.50;;;18.76
42673;BMP280;28284;46.514;30.724;2023-04-23T11:13:49;100982.31;;;18.82
42673;BMP280;28284;46.514;30.724;2023-04-23T11:16:15;100980.97;;;18.90
42673;BMP280;28284;46.514;30.724;2023-04-23T11:18:55;100968.78;;;18.91
42673;BMP280;28284;46.514;30.724;2023-04-23T11:21:20;100973.47;;;18.90
42673;BMP280;28284;46.514;30.724;2023-04-23T11:23:46;100979.25;;;18.96
42673;BMP280;28284;46.514;30.724;2023-04-23T11:26:13;100980.88;;;18.93
42673;BMP280;28284;46.514;30.724;2023-04-23T11:28:39;100984.41;;;18.94
42673;BMP280;28284;46.514;30.724;2023-04-23T11:31:06;100966.41;;;18.93
42673;BMP280;28284;46.514;30.724;2023-04-23T11:33:33;100967.91;;;18.94
42673;BMP280;28284;46.514;30.724;2023-04-23T11:36:00;100961.69;;;18.93
42673;BMP280;28284;46.514;30.724;2023-04-23T11:38:30;100955.41;;;18.93
42673;BMP280;28284;46.514;30.724;2023-04-23T11:40:55;100969.78;;;19.00
42673;BMP280;28284;46.514;30.724;2023-04-23T11:43:20;100968.91;;;19.03
42673;BMP280;28284;46.514;30.724;2023-04-23T11:45:47;100968.91;;;19.03
42673;BMP280;28284;46.514;30.724;2023-04-23T11:48:13;100968.81;;;19.07
42673;BMP280;28284;46.514;30.724;2023-04-23T11:50:38;100964.47;;;19.09
42673;BMP280;28284;46.514;30.724;2023-04-23T11:53:09;100963.53;;;19.16
42673;BMP280;28284;46.514;30.724;2023-04-23T11:55:35;100959.09;;;19.22
42673;BMP280;28284;46.514;30.724;2023-04-23T11:58:00;100960.19;;;19.24
42673;BMP280;28284;46.514;30.724;2023-04-23T12:00:26;100970.31;;;19.27
42673;BMP280;28284;46.514;30.724;2023-04-23T12:02:58;100955.03;;;19.26
42673;BMP280;28284;46.514;30.724;2023-04-23T12:05:28;100969.50;;;19.30
42673;BMP280;28284;46.514;30.724;2023-04-23T12:07:54;100953.69;;;19.34
42673;BMP280;28284;46.514;30.724;2023-04-23T12:10:19;100946.66;;;19.33
42673;BMP280;28284;46.514;30.724;2023-04-23T12:12:48;100949.41;;;19.33
42673;BMP280;28284;46.514;30.724;2023-04-23T12:15:13;100949.06;;;19.31
42673;BMP280;28284;46.514;30.724;2023-04-23T12:17:38;100946.66;;;19.33
42673;BMP280;28284;46.514;30.724;2023-04-23T12:20:04;100937.91;;;19.38
42673;BMP280;28284;46.514;30.724;2023-04-23T12:22:31;100937.78;;;19.41
42673;BMP280;28284;46.514;30.724;2023-04-23T12:24:56;100929.06;;;19.46
42673;BMP280;28284;46.514;30.724;2023-04-23T12:27:22;100924.63;;;19.52
42673;BMP280;28284;46.514;30.724;2023-04-23T12:29:48;100917.94;;;19.53
42673;BMP280;28284;46.514;30.724;2023-04-23T12:32:14;100917.38;;;19.58
42673;BMP280;28284;46.514;30.724;2023-04-23T12:34:55;100927.94;;;19.60
42673;BMP280;28284;46.514;30.724;2023-04-23T12:37:24;100924.50;;;19.56
42673;BMP280;28284;46.514;30.724;2023-04-23T12:39:50;100911.19;;;19.54
42673;BMP280;28284;46.514;30.724;2023-04-23T12:42:17;100923.81;;;19.52
42673;BMP280;28284;46.514;30.724;2023-04-23T12:44:42;100913.34;;;19.47
42673;BMP280;28284;46.514;30.724;2023-04-23T12:47:08;100920.13;;;19.42
42673;BMP280;28284;46.514;30.724;2023-04-23T12:49:35;100912.31;;;19.41
42673;BMP280;28284;46.514;30.724;2023-04-23T12:52:02;100915.25;;;19.34
42673;BMP280;28284;46.514;30.724;2023-04-23T12:54:28;100911.91;;;19.27
42673;BMP280;28284;46.514;30.724;2023-04-23T12:56:54;100911.09;;;19.26
42673;BMP280;28284;46.514;30.724;2023-04-23T12:59:19;100916.34;;;19.21
42673;BMP280;28284;46.514;30.724;2023-04-23T13:01:44;100908.63;;;19.16
42673;BMP280;28284;46.514;30.724;2023-04-23T13:04:10;100905.19;;;19.12
42673;BMP280;28284;46.514;30.724;2023-04-23T13:06:35;100922.41;;;19.12
42673;BMP280;28284;46.514;30.724;2023-04-23T13:09:00;100913.41;;;19.12
42673;BMP280;28284;46.514;30.724;2023-04-23T13:11:30;100904.47;;;19.08
42673;BMP280;28284;46.514;30.724;2023-04-23T13:13:55;100913.56;;;19.05
42673;BMP280;28284;46.514;30.724;2023-04-23T13:16:20;100915.97;;;19.03
42673;BMP280;28284;46.514;30.724;2023-04-23T13:18:45;100919.94;;;19.02
42673;BMP280;28284;46.514;30.724;2023-04-23T13:21:11;100922.66;;;19.02
42673;BMP280;28284;46.514;30.724;2023-04-23T13:23:36;100914.44;;;19.02
42673;BMP280;28284;46.514;30.724;2023-04-23T13:26:02;100918.38;;;19.01
42673;BMP280;28284;46.514;30.724;2023-04-23T13:28:28;100920.00;;;18.98
42673;BMP280;28284;46.514;30.724;2023-04-23T13:30:53;100920.75;;;18.99
42673;BMP280;28284;46.514;30.724;2023-04-23T13:33:18;100920.00;;;18.98
42673;BMP280;28284;46.514;30.724;2023-04-23T13:35:45;100916.81;;;19.00
42673;BMP280;28284;46.514;30.724;2023-04-23T13:38:10;100919.16;;;19.01
42673;BMP280;28284;46.514;30.724;2023-04-23T13:40:36;100916.31;;;19.05
42673;BMP280;28284;46.514;30.724;2023-04-23T13:43:02;100895.91;;;19.06